Time;durP1;ratioP1;P1;durP2;ratioP2;P2;SDS_P1;SDS_P2;PMS_P1;PMS_P2;Temp;Humidity;BMP_temperature;BMP_pressure;BME280_temperature;BME280_humidity;BME280_pressure;Samples;Min_cycle;Max_cycle;Signal;HPM_P1;HPM_P2
2022/09/13 00:01:31;;;;;;;13.82;5.90;;;410.20;2355.20;;;;;;5065684;28;20056;-81
2022/09/13 00:03:57;;;;;;;8.13;5.25;;;410.20;2355.20;;;;;;5076652;28;20028;-82
2022/09/13 00:06:23;;;;;;;7.00;4.72;;;410.20;2355.20;;;;;;5085529;28;20044;-82
2022/09/13 00:08:49;;;;;;;13.50;5.68;;;409.80;2355.20;;;;;;5078994;28;20028;-82
2022/09/13 00:11:17;;;;;;;11.27;6.30;;;409.90;2355.20;;;;;;5056822;28;20088;-81
2022/09/13 00:13:44;;;;;;;12.05;5.88;;;409.80;2355.20;;;;;;5056877;28;20040;-81
2022/09/13 00:16:12;;;;;;;12.90;5.47;;;384.80;2329.60;;;;;;5060156;28;20024;-79
2022/09/13 00:18:38;;;;;;;10.63;5.10;;;409.90;2355.20;;;;;;5056290;28;20527;-82
2022/09/13 00:21:12;;;;;;;9.20;5.22;;;409.90;2355.20;;;;;;5074992;28;20351;-81
2022/09/13 00:23:40;;;;;;;8.20;4.70;;;409.80;2355.20;;;;;;5075329;28;20023;-82
2022/09/13 00:26:15;;;;;;;8.75;5.03;;;409.60;2355.20;;;;;;5056233;28;20029;-82
2022/09/13 00:28:42;;;;;;;8.32;4.68;;;409.70;2355.20;;;;;;5069584;28;20056;-83
2022/09/13 00:31:09;;;;;;;8.57;5.18;;;409.80;2355.20;;;;;;5056547;28;20397;-81
2022/09/13 00:33:35;;;;;;;11.25;5.05;;;409.70;2355.20;;;;;;5056090;28;20032;-83
2022/09/13 00:36:10;;;;;;;8.93;5.07;;;409.70;2355.20;;;;;;5059044;28;20031;-82
2022/09/13 00:38:40;;;;;;;9.55;5.00;;;409.70;2355.20;;;;;;5078679;28;20024;-83
2022/09/13 00:41:09;;;;;;;8.90;4.65;;;409.80;2355.20;;;;;;5077052;28;20044;-82
2022/09/13 00:43:41;;;;;;;8.65;4.72;;;409.80;2355.20;;;;;;5075068;28;20031;-81
2022/09/13 00:46:07;;;;;;;10.35;5.00;;;409.60;2355.20;;;;;;5074084;28;20467;-82
2022/09/13 00:48:35;;;;;;;8.63;5.00;;;409.60;2355.20;;;;;;5065669;28;20032;-81
2022/09/13 00:51:02;;;;;;;10.95;4.65;;;409.70;2355.20;;;;;;5075693;28;20020;-81
2022/09/13 00:53:32;;;;;;;6.90;4.70;;;409.70;2355.20;;;;;;5056779;28;20398;-82
2022/09/13 00:56:02;;;;;;;9.98;4.85;;;409.60;2355.20;;;;;;5055906;28;20039;-82
2022/09/13 00:58:33;;;;;;;9.77;4.70;;;409.60;2355.20;;;;;;5064257;28;20024;-82
2022/09/13 01:01:02;;;;;;;8.43;4.75;;;409.70;2355.20;;;;;;5063301;28;20036;-82
2022/09/13 01:03:32;;;;;;;8.68;4.55;;;409.70;2355.20;;;;;;5056401;28;20463;-81
2022/09/13 01:06:08;;;;;;;9.25;5.10;;;409.70;2355.20;;;;;;5055452;28;20032;-82
2022/09/13 01:08:36;;;;;;;8.25;4.95;;;409.90;2355.20;;;;;;5078576;28;20191;-82
2022/09/13 01:11:05;;;;;;;10.80;5.40;;;409.60;2355.20;;;;;;5079119;28;20094;-81
2022/09/13 01:13:33;;;;;;;12.18;4.72;;;384.90;2329.60;;;;;;5065148;28;20533;-82
2022/09/13 01:15:59;;;;;;;12.32;4.88;;;384.80;2329.60;;;;;;5091447;28;20032;-81
2022/09/13 01:18:26;;;;;;;9.38;5.03;;;384.70;2329.60;;;;;;5093025;28;20077;-80
2022/09/13 01:21:16;;;;;;;8.23;4.70;;;384.80;2329.60;;;;;;5087881;28;20043;-79
2022/09/13 01:23:54;;;;;;;11.35;5.35;;;384.70;2329.60;;;;;;5072118;28;20462;-79
2022/09/13 01:27:05;;;;;;;9.60;4.80;;;384.60;2329.60;;;;;;5066881;28;20043;-80
2022/09/13 01:30:10;;;;;;;9.80;4.80;;;384.70;2329.60;;;;;;5066436;28;20017;-80
2022/09/13 01:32:55;;;;;;;9.27;5.10;;;384.60;2329.60;;;;;;5056302;28;20028;-80
2022/09/13 01:35:52;;;;;;;7.45;5.35;;;384.30;2329.60;;;;;;5089545;28;20043;-80
2022/09/13 01:38:36;;;;;;;12.32;5.10;;;384.50;2329.60;;;;;;5061169;28;20088;-80
2022/09/13 01:41:34;;;;;;;8.85;5.38;;;384.40;2329.60;;;;;;5075396;28;20404;-80
2022/09/13 01:44:24;;;;;;;7.80;4.47;;;384.50;2329.60;;;;;;5068543;28;20054;-80
2022/09/13 01:47:11;;;;;;;6.82;4.63;;;384.40;2329.60;;;;;;5057228;28;20032;-80
2022/09/13 01:49:46;;;;;;;7.53;4.53;;;384.40;2329.60;;;;;;5088134;28;20484;-80
2022/09/13 01:52:21;;;;;;;11.50;5.55;;;384.30;2329.60;;;;;;5064344;28;20062;-79
2022/09/13 01:55:04;;;;;;;11.68;5.55;;;384.30;2329.60;;;;;;5103161;28;20028;-80
2022/09/13 01:57:30;;;;;;;8.90;4.80;;;384.30;2329.60;;;;;;5074283;28;20024;-80
2022/09/13 02:00:03;;;;;;;9.77;4.97;;;384.40;2329.60;;;;;;5058974;28;20032;-80
2022/09/13 02:02:41;;;;;;;15.70;5.55;;;384.30;2329.60;;;;;;5080503;28;20535;-80
2022/09/13 02:05:37;;;;;;;9.73;5.07;;;384.20;2329.60;;;;;;5059849;28;20043;-80
2022/09/13 02:08:12;;;;;;;8.50;5.47;;;384.10;2329.60;;;;;;5080774;28;20024;-78
2022/09/13 02:10:44;;;;;;;11.77;4.78;;;384.10;2329.60;;;;;;5066487;28;20032;-79
2022/09/13 02:13:16;;;;;;;9.07;5.15;;;384.10;2329.60;;;;;;5084518;28;20020;-79
2022/09/13 02:15:47;;;;;;;15.82;4.43;;;384.10;2329.60;;;;;;5059911;28;20040;-80
2022/09/13 02:18:22;;;;;;;8.17;5.10;;;384.10;2329.60;;;;;;5055346;28;20028;-80
2022/09/13 02:20:50;;;;;;;7.97;4.68;;;384.10;2329.60;;;;;;5069045;28;20326;-80
2022/09/13 02:23:30;;;;;;;10.02;4.90;;;384.00;2329.60;;;;;;5059402;28;20040;-80
2022/09/13 02:25:58;;;;;;;8.65;5.10;;;384.00;2329.60;;;;;;5059886;28;20040;-80
2022/09/13 02:28:31;;;;;;;10.80;5.25;;;384.00;2329.60;;;;;;5055887;28;20033;-80
2022/09/13 02:30:59;;;;;;;8.18;4.63;;;384.00;2329.60;;;;;;5066995;28;20028;-79
2022/09/13 02:33:51;;;;;;;9.60;5.60;;;384.00;2329.60;;;;;;5075808;28;20028;-79
2022/09/13 02:36:26;;;;;;;6.82;4.95;;;359.20;2329.60;;;;;;5060399;28;20047;-80
2022/09/13 02:38:58;;;;;;;8.27;4.70;;;359.30;2329.60;;;;;;5061021;28;20029;-80
2022/09/13 02:41:51;;;;;;;6.95;4.75;;;359.30;2329.60;;;;;;5053312;28;20048;-80
2022/09/13 02:44:27;;;;;;;10.55;4.80;;;359.30;2329.60;;;;;;5093619;28;20036;-80
2022/09/13 02:47:02;;;;;;;8.60;5.13;;;359.00;2329.60;;;;;;5075000;28;20024;-80
2022/09/13 02:49:38;;;;;;;8.38;4.53;;;359.10;2329.60;;;;;;5072579;28;20055;-80
2022/09/13 02:52:06;;;;;;;8.20;4.57;;;359.00;2329.60;;;;;;5058155;28;20032;-79
2022/09/13 02:54:58;;;;;;;9.55;5.30;;;359.00;2329.60;;;;;;5096088;28;20024;-79
2022/09/13 02:58:02;;;;;;;7.82;4.80;;;359.00;2329.60;;;;;;5093231;28;20547;-80
2022/09/13 03:00:28;;;;;;;8.77;4.32;;;359.00;2329.60;;;;;;5052011;28;20073;-80
2022/09/13 03:02:57;;;;;;;7.32;4.68;;;359.00;2329.60;;;;;;5058594;28;20519;-80
2022/09/13 03:05:23;;;;;;;11.30;4.35;;;359.00;2329.60;;;;;;5075167;28;20028;-80
2022/09/13 03:07:50;;;;;;;9.15;4.63;;;359.00;2329.60;;;;;;5079993;28;20020;-80
2022/09/13 03:10:16;;;;;;;12.38;4.75;;;359.00;2329.60;;;;;;5059456;28;20039;-78
2022/09/13 03:13:27;;;;;;;11.25;4.97;;;359.00;2329.60;;;;;;5057399;28;20021;-80
2022/09/13 03:16:12;;;;;;;8.00;4.75;;;359.00;2329.60;;;;;;5071941;28;20118;-80
2022/09/13 03:19:16;;;;;;;8.52;4.25;;;359.00;2329.60;;;;;;5095680;28;20020;-79
2022/09/13 03:21:54;;;;;;;12.98;5.35;;;358.60;2329.60;;;;;;5070739;28;20040;-81
2022/09/13 03:24:48;;;;;;;8.43;4.68;;;358.70;2329.60;;;;;;5068828;28;20138;-80
2022/09/13 03:27:56;;;;;;;7.97;4.55;;;358.60;2329.60;;;;;;5067223;28;20051;-80
2022/09/13 03:30:22;;;;;;;8.60;4.68;;;358.80;2329.60;;;;;;5063871;28;20043;-80
2022/09/13 03:33:33;;;;;;;7.45;4.80;;;358.80;2329.60;;;;;;5065959;28;20024;-80
2022/09/13 03:36:17;;;;;;;9.38;4.65;;;358.70;2329.60;;;;;;5043970;28;20063;-80
2022/09/13 03:38:53;;;;;;;7.28;4.10;;;358.80;2329.60;;;;;;5061883;28;20031;-80
2022/09/13 03:41:26;;;;;;;10.23;4.90;;;358.80;2329.60;;;;;;5096524;28;20540;-80
2022/09/13 03:44:01;;;;;;;8.20;4.68;;;358.80;2329.60;;;;;;5063105;28;20470;-81
2022/09/13 03:46:41;;;;;;;7.18;5.10;;;358.60;2329.60;;;;;;5059715;28;20060;-80
2022/09/13 03:49:11;;;;;;;7.25;4.43;;;358.50;2329.60;;;;;;5080718;28;20465;-80
2022/09/13 03:51:37;;;;;;;8.68;4.70;;;358.60;2329.60;;;;;;5063071;28;20063;-80
2022/09/13 03:54:08;;;;;;;9.55;4.40;;;358.60;2329.60;;;;;;5059923;28;20417;-80
2022/09/13 03:56:34;;;;;;;10.65;4.57;;;358.70;2329.60;;;;;;5078226;28;20052;-81
2022/09/13 03:59:00;;;;;;;6.75;4.28;;;358.70;2329.60;;;;;;5082086;28;20074;-80
2022/09/13 04:01:26;;;;;;;11.25;4.50;;;358.80;2329.60;;;;;;5082908;28;20154;-81
2022/09/13 04:03:53;;;;;;;7.55;4.68;;;358.70;2329.60;;;;;;5065622;28;20115;-80
2022/09/13 04:06:18;;;;;;;10.23;4.20;;;358.80;2329.60;;;;;;5071174;28;20478;-80
2022/09/13 04:08:44;;;;;;;6.07;4.43;;;358.80;2329.60;;;;;;5063020;28;20078;-80
2022/09/13 04:11:10;;;;;;;8.77;4.35;;;358.80;2329.60;;;;;;5062839;28;20074;-80
2022/09/13 04:13:37;;;;;;;7.40;4.32;;;358.70;2329.60;;;;;;5062296;28;20032;-80
2022/09/13 04:16:04;;;;;;;6.88;4.78;;;358.60;2329.60;;;;;;5095756;28;20039;-80
2022/09/13 04:18:30;;;;;;;9.98;4.88;;;358.60;2329.60;;;;;;5063632;28;20881;-79
2022/09/13 04:21:00;;;;;;;8.65;5.10;;;358.60;2329.60;;;;;;5057536;28;20035;-80
2022/09/13 04:23:28;;;;;;;7.63;5.03;;;358.60;2329.60;;;;;;5068834;28;20020;-81
2022/09/13 04:26:00;;;;;;;6.93;4.20;;;358.50;2329.60;;;;;;5077951;28;20112;-79
2022/09/13 04:28:26;;;;;;;12.85;5.20;;;358.60;2329.60;;;;;;5057912;28;20039;-80
2022/09/13 04:30:52;;;;;;;9.75;4.82;;;358.50;2329.60;;;;;;5059681;28;20035;-81
2022/09/13 04:33:18;;;;;;;8.63;4.60;;;358.50;2329.60;;;;;;5056873;28;20070;-80
2022/09/13 04:35:43;;;;;;;7.60;4.60;;;358.40;2329.60;;;;;;5092365;28;20386;-80
2022/09/13 04:38:09;;;;;;;7.88;4.25;;;358.40;2329.60;;;;;;5094007;28;20035;-81
2022/09/13 04:40:36;;;;;;;9.98;4.55;;;358.50;2329.60;;;;;;5061844;28;20490;-81
2022/09/13 04:43:02;;;;;;;7.13;4.65;;;358.60;2329.60;;;;;;5090695;28;20020;-80
2022/09/13 04:45:28;;;;;;;9.07;4.57;;;358.60;2329.60;;;;;;5063002;28;20036;-81
2022/09/13 04:47:55;;;;;;;6.75;4.22;;;358.60;2329.60;;;;;;5060952;28;20397;-80
2022/09/13 04:50:22;;;;;;;7.53;4.60;;;358.50;2329.60;;;;;;5069159;28;20032;-80
2022/09/13 04:52:48;;;;;;;10.52;4.72;;;358.60;2329.60;;;;;;5070013;28;20106;-80
2022/09/13 04:55:14;;;;;;;9.43;5.35;;;358.70;2329.60;;;;;;5057152;28;20032;-81
2022/09/13 04:57:40;;;;;;;9.43;5.50;;;358.80;2329.60;;;;;;5097221;28;20035;-81
2022/09/13 05:00:07;;;;;;;10.95;6.45;;;358.60;2329.60;;;;;;5059866;28;20037;-80
2022/09/13 05:02:33;;;;;;;8.15;4.65;;;358.80;2329.60;;;;;;5061868;28;20042;-80
2022/09/13 05:04:59;;;;;;;8.52;4.95;;;358.80;2329.60;;;;;;5058708;28;20111;-80
2022/09/13 05:07:25;;;;;;;10.88;5.60;;;358.80;2329.60;;;;;;5059028;28;20029;-80
2022/09/13 05:09:50;;;;;;;7.78;5.40;;;358.90;2329.60;;;;;;5060918;28;20057;-80
2022/09/13 05:12:16;;;;;;;10.00;4.88;;;358.80;2329.60;;;;;;5061122;28;20487;-79
2022/09/13 05:14:42;;;;;;;11.05;5.13;;;358.80;2329.60;;;;;;5062580;28;20034;-79
2022/09/13 05:17:08;;;;;;;13.77;4.68;;;358.80;2329.60;;;;;;5094669;28;20029;-79
2022/09/13 05:19:34;;;;;;;12.88;5.05;;;358.80;2329.60;;;;;;5058577;28;20532;-79
2022/09/13 05:22:01;;;;;;;11.73;4.63;;;358.80;2329.60;;;;;;5063924;28;20024;-79
2022/09/13 05:24:27;;;;;;;11.75;6.13;;;358.70;2329.60;;;;;;5058154;28;20394;-80
2022/09/13 05:26:53;;;;;;;13.65;6.07;;;358.80;2329.60;;;;;;5072820;28;20031;-80
2022/09/13 05:29:19;;;;;;;10.05;5.22;;;358.90;2329.60;;;;;;5064041;28;20021;-80
2022/09/13 05:31:45;;;;;;;11.30;5.43;;;358.80;2329.60;;;;;;5060888;28;20040;-80
2022/09/13 05:34:13;;;;;;;18.25;5.57;;;358.60;2329.60;;;;;;5059918;28;20068;-79
2022/09/13 05:36:40;;;;;;;10.32;5.65;;;358.80;2329.60;;;;;;5065029;28;20028;-81
2022/09/13 05:39:07;;;;;;;11.43;6.00;;;358.80;2329.60;;;;;;5057907;28;20031;-80
2022/09/13 05:41:33;;;;;;;10.60;5.43;;;358.80;2329.60;;;;;;5057308;28;20044;-80
2022/09/13 05:43:59;;;;;;;15.73;6.25;;;358.80;2329.60;;;;;;5063252;28;20077;-80
2022/09/13 05:46:25;;;;;;;14.50;6.75;;;358.80;2329.60;;;;;;5060595;28;20036;-81
2022/09/13 05:48:51;;;;;;;18.23;6.80;;;358.80;2329.60;;;;;;5079540;28;20031;-80
2022/09/13 05:51:19;;;;;;;11.00;5.53;;;358.70;2329.60;;;;;;5057849;28;20024;-80
2022/09/13 05:53:47;;;;;;;13.00;6.60;;;358.80;2329.60;;;;;;5057791;28;20111;-80
2022/09/13 05:56:16;;;;;;;19.35;6.20;;;359.00;2329.60;;;;;;5060524;28;20063;-84
2022/09/13 05:58:44;;;;;;;15.13;6.20;;;359.00;2329.60;;;;;;5061595;28;20032;-82
2022/09/13 06:01:11;;;;;;;13.15;5.95;;;359.00;2329.60;;;;;;5075041;28;20039;-80
2022/09/13 06:03:37;;;;;;;12.05;5.95;;;358.80;2329.60;;;;;;5061528;28;20032;-84
2022/09/13 06:06:04;;;;;;;11.45;5.20;;;358.80;2329.60;;;;;;5057390;28;20036;-81
2022/09/13 06:08:32;;;;;;;8.68;5.40;;;358.90;2329.60;;;;;;5063800;28;20111;-79
2022/09/13 06:11:06;;;;;;;11.63;5.05;;;359.00;2329.60;;;;;;5074191;28;20078;-80
2022/09/13 06:13:33;;;;;;;9.88;4.82;;;359.20;2329.60;;;;;;5064834;28;20470;-80
2022/09/13 06:16:00;;;;;;;12.27;5.72;;;359.20;2329.60;;;;;;5091299;28;20126;-81
2022/09/13 06:18:27;;;;;;;16.13;5.72;;;359.20;2329.60;;;;;;5061754;28;20093;-81
2022/09/13 06:21:16;;;;;;;10.10;5.25;;;359.10;2329.60;;;;;;5068756;28;20081;-81
2022/09/13 06:23:46;;;;;;;9.32;4.75;;;359.30;2329.60;;;;;;5090979;28;20032;-80
2022/09/13 06:26:14;;;;;;;13.85;5.28;;;384.00;2329.60;;;;;;5061020;28;20036;-80
2022/09/13 06:28:41;;;;;;;9.93;4.65;;;384.10;2329.60;;;;;;5055623;28;20028;-80
2022/09/13 06:31:12;;;;;;;7.65;4.93;;;384.30;2329.60;;;;;;5058265;28;20037;-80
2022/09/13 06:33:40;;;;;;;7.70;5.20;;;384.40;2329.60;;;;;;5061342;28;20029;-81
2022/09/13 06:36:16;;;;;;;10.68;5.47;;;384.60;2329.60;;;;;;5063816;28;20032;-80
2022/09/13 06:38:43;;;;;;;8.88;5.53;;;384.60;2329.60;;;;;;5058355;28;20124;-80
2022/09/13 06:41:21;;;;;;;8.35;4.90;;;384.70;2329.60;;;;;;5076265;28;20116;-80
2022/09/13 06:43:52;;;;;;;10.93;4.65;;;384.70;2329.60;;;;;;5056936;28;20024;-79
2022/09/13 06:46:19;;;;;;;10.10;4.72;;;384.70;2329.60;;;;;;5063409;28;20036;-80
2022/09/13 06:48:45;;;;;;;8.52;5.43;;;384.80;2329.60;;;;;;5057999;28;20028;-80
2022/09/13 06:51:17;;;;;;;12.48;4.35;;;409.60;2355.20;;;;;;5061960;28;20070;-80
2022/09/13 06:53:44;;;;;;;9.90;4.77;;;409.60;2355.20;;;;;;5059526;28;20031;-79
2022/09/13 06:56:13;;;;;;;12.68;5.15;;;409.70;2355.20;;;;;;5081658;28;20102;-79
2022/09/13 06:58:41;;;;;;;8.70;4.57;;;409.70;2355.20;;;;;;5054690;28;20090;-80
2022/09/13 07:01:17;;;;;;;13.40;5.65;;;409.60;2355.20;;;;;;5074348;28;20028;-80
2022/09/13 07:03:53;;;;;;;10.38;4.68;;;409.70;2355.20;;;;;;5058266;28;20036;-80
2022/09/13 07:06:22;;;;;;;11.57;5.07;;;409.90;2355.20;;;;;;5055511;28;20920;-80
2022/09/13 07:08:49;;;;;;;6.30;4.65;;;409.90;2355.20;;;;;;5063959;28;20036;-79
2022/09/13 07:11:19;;;;;;;22.73;6.25;;;410.00;2355.20;;;;;;5061794;28;20028;-79
2022/09/13 07:13:49;;;;;;;17.08;5.57;;;409.80;2355.20;;;;;;5059126;28;20108;-79
2022/09/13 07:16:16;;;;;;;10.43;5.30;;;409.90;2355.20;;;;;;5058552;28;20468;-80
2022/09/13 07:18:42;;;;;;;9.63;4.75;;;410.00;2355.20;;;;;;5060392;28;20028;-80
2022/09/13 07:21:10;;;;;;;8.35;5.15;;;410.00;2355.20;;;;;;5059383;28;20021;-82
2022/09/13 07:23:38;;;;;;;11.73;6.55;;;410.20;2355.20;;;;;;5066072;28;20024;-83
2022/09/13 07:26:06;;;;;;;11.55;4.72;;;410.30;2355.20;;;;;;5061041;28;20545;-84
2022/09/13 07:28:53;;;;;;;12.48;5.25;;;410.50;2355.20;;;;;;5069126;28;20036;-82
2022/09/13 07:31:22;;;;;;;8.30;4.82;;;435.20;2355.20;;;;;;5068209;28;20024;-83
2022/09/13 07:33:57;;;;;;;10.88;5.93;;;435.40;2355.20;;;;;;5059593;28;20520;-82
2022/09/13 07:36:24;;;;;;;11.32;6.60;;;435.50;2355.20;;;;;;5068820;28;20028;-83
2022/09/13 07:38:50;;;;;;;14.63;6.30;;;435.60;2355.20;;;;;;5070839;28;20078;-83
2022/09/13 07:41:19;;;;;;;11.88;5.90;;;410.20;2355.20;;;;;;5071428;28;20044;-82
2022/09/13 07:43:45;;;;;;;13.98;5.85;;;435.80;2355.20;;;;;;5067156;28;20024;-82
2022/09/13 07:46:17;;;;;;;9.93;5.28;;;435.90;2355.20;;;;;;5066269;28;20047;-82
2022/09/13 07:48:44;;;;;;;10.55;5.40;;;436.10;2355.20;;;;;;5074463;28;20465;-82
2022/09/13 07:51:16;;;;;;;9.93;5.00;;;460.80;2380.80;;;;;;5069577;28;20097;-82
2022/09/13 07:53:44;;;;;;;12.13;5.53;;;460.90;2380.80;;;;;;5070389;28;20031;-82
2022/09/13 07:56:15;;;;;;;9.40;5.47;;;461.00;2380.80;;;;;;5061558;28;20047;-83
2022/09/13 07:58:43;;;;;;;10.07;6.32;;;461.10;2380.80;;;;;;5064746;28;20445;-83
2022/09/13 08:01:26;;;;;;;16.92;8.00;;;461.20;2380.80;;;;;;5066824;28;20050;-82
2022/09/13 08:03:54;;;;;;;12.82;6.65;;;461.50;2380.80;;;;;;5065201;28;20028;-82
2022/09/13 08:06:20;;;;;;;14.07;7.32;;;461.50;2380.80;;;;;;5071077;28;20036;-83
2022/09/13 08:08:46;;;;;;;15.10;7.40;;;461.70;2380.80;;;;;;5069291;28;20022;-83
2022/09/13 08:11:21;;;;;;;15.82;6.95;;;486.60;2380.80;;;;;;5065966;28;20020;-82
2022/09/13 08:13:47;;;;;;;8.20;5.50;;;486.90;2380.80;;;;;;5065833;28;20480;-83
2022/09/13 08:16:14;;;;;;;10.48;5.35;;;486.80;2380.80;;;;;;5068028;28;20599;-81
2022/09/13 08:18:49;;;;;;;10.15;5.18;;;486.90;2380.80;;;;;;5062496;28;20119;-79
2022/09/13 08:21:15;;;;;;;7.60;4.97;;;487.10;2380.80;;;;;;5068106;28;20024;-80
2022/09/13 08:23:41;;;;;;;8.60;6.15;;;487.10;2380.80;;;;;;5064006;28;20458;-80
2022/09/13 08:26:07;;;;;;;11.50;5.43;;;487.30;2380.80;;;;;;5061124;28;20111;-80
2022/09/13 08:28:34;;;;;;;10.07;5.18;;;512.00;2380.80;;;;;;5062211;28;20082;-80
2022/09/13 08:31:09;;;;;;;8.25;5.50;;;512.20;2380.80;;;;;;5059319;28;20024;-81
2022/09/13 08:33:35;;;;;;;7.43;4.90;;;512.30;2380.80;;;;;;5077161;28;20050;-81
2022/09/13 08:36:02;;;;;;;12.90;5.45;;;512.40;2380.80;;;;;;5100923;28;20029;-82
2022/09/13 08:38:29;;;;;;;11.68;5.68;;;512.60;2380.80;;;;;;5068184;28;20836;-83
2022/09/13 08:40:58;;;;;;;8.15;5.43;;;512.70;2380.80;;;;;;5068791;28;20080;-82
2022/09/13 08:43:47;;;;;;;7.20;4.78;;;512.70;2380.80;;;;;;5060129;28;20032;-83
2022/09/13 08:46:45;;;;;;;7.28;4.70;;;512.90;2380.80;;;;;;5084348;28;20036;-82
2022/09/13 08:49:25;;;;;;;7.70;4.93;;;537.80;2406.40;;;;;;5069613;28;20496;-81
2022/09/13 08:51:56;;;;;;;7.10;4.20;;;538.00;2406.40;;;;;;5062740;28;20024;-83
2022/09/13 08:54:22;;;;;;;11.85;4.47;;;538.10;2406.40;;;;;;5069874;28;20027;-82
2022/09/13 08:57:07;;;;;;;6.97;4.13;;;538.00;2406.40;;;;;;5091285;28;20138;-82
2022/09/13 08:59:53;;;;;;;8.52;4.40;;;538.00;2406.40;;;;;;5083571;28;20024;-82
2022/09/13 09:02:42;;;;;;;6.47;4.43;;;538.00;2406.40;;;;;;5097850;28;20024;-81
2022/09/13 09:05:28;;;;;;;8.68;4.97;;;538.00;2406.40;;;;;;5097610;28;20019;-82
2022/09/13 09:08:31;;;;;;;8.82;4.63;;;538.20;2406.40;;;;;;5099607;28;20020;-84
2022/09/13 09:11:01;;;;;;;9.10;4.77;;;538.40;2406.40;;;;;;5059537;28;20038;-81
2022/09/13 09:13:47;;;;;;;5.85;4.05;;;;;;;;;;5102276;28;20046;-82
2022/09/13 09:16:23;;;;;;;5.50;3.90;;;;;;;;;;5086809;28;20059;-83
2022/09/13 09:18:50;;;;;;;7.68;3.63;;;;;;;;;;5076244;28;20020;-82
2022/09/13 09:21:17;;;;;;;6.82;4.20;;;;;;;;;;5074900;28;20114;-82
2022/09/13 09:23:44;;;;;;;4.80;3.50;;;;;;;;;;5071212;28;20025;-86
2022/09/13 09:26:18;;;;;;;6.18;3.90;;;538.50;2406.40;;;;;;5104887;28;20024;-84
2022/09/13 09:29:04;;;;;;;6.70;3.53;;;538.50;2406.40;;;;;;5072815;28;20067;-83
2022/09/13 09:31:33;;;;;;;6.38;3.90;;;;;;;;;;5063210;28;20016;-85
2022/09/13 09:34:12;;;;;;;4.60;3.33;;;;;;;;;;5060558;28;20493;-84
2022/09/13 09:36:45;;;;;;;6.78;3.60;;;;;;;;;;5062906;28;20023;-83
2022/09/13 09:39:12;;;;;;;7.32;3.35;;;;;;;;;;5076158;28;20076;-84
2022/09/13 09:41:38;;;;;;;7.72;3.40;;;;;;;;;;5067580;28;20058;-82
2022/09/13 09:44:04;;;;;;;6.32;3.40;;;;;;;;;;5056168;28;20036;-83
2022/09/13 09:46:33;;;;;;;7.05;4.10;;;;;;;;;;5058506;28;20039;-80
2022/09/13 09:50:07;;;;;;;6.03;4.25;;;;;;;;;;5067125;28;20374;-81
2022/09/13 09:51:59;;;;;;;11.48;4.50;;;;;;;;;;5089701;28;20386;-82
2022/09/13 09:54:28;;;;;;;5.82;2.95;;;;;;;;;;5067726;28;20031;-83
2022/09/13 09:56:55;;;;;;;5.20;3.25;;;;;;;;;;5060844;28;20039;-84
2022/09/13 09:59:25;;;;;;;5.78;3.33;;;;;;;;;;5064499;28;20055;-82
2022/09/13 10:01:51;;;;;;;7.05;3.92;;;563.50;2432.00;;;;;;5065159;28;20047;-82
2022/09/13 10:04:21;;;;;;;9.13;3.40;;;563.50;2432.00;;;;;;5102452;28;20469;-82
2022/09/13 10:06:48;;;;;;;6.22;3.60;;;563.50;2432.00;;;;;;5083550;28;20032;-82
2022/09/13 10:09:19;;;;;;;7.00;4.85;;;563.40;2432.00;;;;;;5060753;28;20389;-83
2022/09/13 10:11:50;;;;;;;7.30;5.00;;;563.40;2432.00;;;;;;5069168;28;20032;-83
2022/09/13 10:14:44;;;;;;;7.65;4.93;;;563.50;2432.00;;;;;;5072828;28;20028;-83
2022/09/13 10:17:29;;;;;;;5.88;3.83;;;563.60;2432.00;;;;;;5071556;28;20023;-84
2022/09/13 10:20:26;;;;;;;4.40;2.97;;;564.10;2406.40;;;;;;5063065;28;20028;-85
2022/09/13 10:23:21;;;;;;;3.85;2.65;;;588.80;2355.20;;;;;;5047185;28;20437;-84
2022/09/13 10:26:13;;;;;;;5.22;3.03;;;588.80;2329.60;;;;;;5052919;28;20498;-84
2022/09/13 10:28:54;;;;;;;6.45;3.85;;;588.90;2329.60;;;;;;5063232;28;20036;-83
2022/09/13 10:31:26;;;;;;;5.18;3.33;;;588.80;2355.20;;;;;;5071537;28;20522;-82
2022/09/13 10:33:58;;;;;;;5.35;3.58;;;589.20;2329.60;;;;;;5061659;28;20024;-83
2022/09/13 10:36:29;;;;;;;;;;;589.50;2304.00;;;;;;5083270;28;20028;-82
2022/09/13 10:39:04;;;;;;;10.85;3.97;;;589.50;2329.60;;;;;;5097250;28;19962;-82
2022/09/13 10:41:40;;;;;;;7.15;3.60;;;589.60;2329.60;;;;;;5065063;28;20452;-83
2022/09/13 10:44:29;;;;;;;4.72;3.47;;;589.40;2329.60;;;;;;5074438;28;20086;-82
2022/09/13 10:46:58;;;;;;;5.13;3.20;;;589.40;2329.60;;;;;;5071504;28;20503;-83
2022/09/13 10:49:42;;;;;;;11.02;8.27;;;589.20;2329.60;;;;;;5068035;28;20029;-83
2022/09/13 10:52:30;;;;;;;9.43;6.57;;;589.20;2380.80;;;;;;5094474;28;20029;-83
2022/09/13 10:55:17;;;;;;;6.50;4.03;;;589.50;2329.60;;;;;;5071347;28;20036;-83
2022/09/13 10:58:06;;;;;;;6.53;3.08;;;589.50;2278.40;;;;;;5057911;28;20039;-83
2022/09/13 11:01:07;;;;;;;5.15;2.83;;;614.40;2304.00;;;;;;5047314;28;20032;-83
2022/09/13 11:03:55;;;;;;;4.88;3.10;;;614.40;2227.20;;;;;;5068792;28;20051;-84
2022/09/13 11:06:39;;;;;;;4.40;3.03;;;589.70;2201.60;;;;;;5066890;28;20036;-83
2022/09/13 11:09:11;;;;;;;5.97;3.15;;;589.50;2278.40;;;;;;5081381;28;20125;-83
2022/09/13 11:12:22;;;;;;;4.75;3.45;;;589.50;2252.80;;;;;;5064417;28;20051;-83
2022/09/13 11:15:11;;;;;;;5.38;3.20;;;589.30;2201.60;;;;;;5041307;28;20090;-83
2022/09/13 11:18:18;;;;;;;6.63;3.30;;;589.70;2278.40;;;;;;5070825;28;20036;-82
2022/09/13 11:21:10;;;;;;;5.53;3.42;;;614.40;2201.60;;;;;;5030558;28;20025;-84
2022/09/13 11:23:45;;;;;;;4.78;3.03;;;614.60;2227.20;;;;;;5013498;28;20090;-84
2022/09/13 11:26:34;;;;;;;4.78;2.90;;;614.70;2176.00;;;;;;5081088;28;20046;-84
2022/09/13 11:29:15;;;;;;;9.20;2.83;;;614.40;2227.20;;;;;;5067024;28;20111;-80
2022/09/13 11:31:59;;;;;;;4.57;2.97;;;589.70;2201.60;;;;;;5076129;28;20466;-81
2022/09/13 11:34:57;;;;;;;5.40;2.92;;;589.50;2252.80;;;;;;5059917;28;20032;-81
2022/09/13 11:37:46;;;;;;;7.95;3.50;;;589.40;2201.60;;;;;;5079736;28;20487;-81
2022/09/13 11:40:21;;;;;;;5.72;3.03;;;589.20;2227.20;;;;;;5089452;28;20497;-82
2022/09/13 11:43:32;;;;;;;4.28;2.67;;;589.30;2176.00;;;;;;5074082;28;20028;-81
2022/09/13 11:46:10;;;;;;;5.88;3.63;;;589.60;2176.00;;;;;;5079536;28;20028;-83
2022/09/13 11:48:57;;;;;;;5.00;3.20;;;615.00;2150.40;;;;;;5072460;28;20573;-84
2022/09/13 11:51:50;;;;;;;5.53;3.05;;;640.50;2176.00;;;;;;5069660;28;20438;-85
2022/09/13 11:54:28;;;;;;;6.38;3.17;;;665.60;2099.20;;;;;;5053383;28;20094;-83
2022/09/13 11:56:57;;;;;;;4.40;2.58;;;;;;;;;;5066938;28;20024;-84
2022/09/13 11:59:36;;;;;;;4.72;2.70;;;;;;;;;;5068680;28;20659;-83
2022/09/13 12:02:30;;;;;;;5.13;2.20;;;640.60;2048.00;;;;;;5067728;28;20112;-83
2022/09/13 12:05:21;;;;;;;5.45;2.45;;;640.10;2048.00;;;;;;5061356;28;20037;-84
2022/09/13 12:08:10;;;;;;;3.90;2.50;;;615.20;2048.00;;;;;;5067452;28;20640;-83
2022/09/13 12:11:15;;;;;;;7.22;2.40;;;614.80;2048.00;;;;;;5085152;28;20035;-84
2022/09/13 12:13:52;;;;;;;3.88;2.45;;;615.10;2048.00;;;;;;5071418;28;20039;-84
2022/09/13 12:16:48;;;;;;;4.13;2.50;;;640.40;1996.80;;;;;;5071013;28;20541;-84
2022/09/13 12:19:21;;;;;;;5.85;2.22;;;640.90;1971.20;;;;;;5062787;28;20060;-84
2022/09/13 12:21:47;;;;;;;;;;;665.70;1920.00;;;;;;5070591;28;20038;-83
2022/09/13 12:24:42;;;;;;;6.05;2.42;;;666.20;1945.60;;;;;;5067831;28;19908;-84
2022/09/13 12:27:25;;;;;;;3.00;1.77;;;666.30;1894.40;;;;;;5059059;28;20123;-84
2022/09/13 12:30:17;;;;;;;5.65;2.35;;;691.40;1894.40;;;;;;5072423;28;20122;-82
2022/09/13 12:32:44;;;;;;;5.30;2.20;;;691.50;1868.80;;;;;;5066033;28;20032;-80
2022/09/13 12:35:35;;;;;;;6.22;2.35;;;666.30;1868.80;;;;;;5079672;28;20103;-82
2022/09/13 12:38:14;;;;;;;4.80;2.13;;;665.90;1920.00;;;;;;5081268;28;20028;-82
2022/09/13 12:41:00;;;;;;;3.38;2.20;;;665.80;1920.00;;;;;;5063370;28;20052;-83
2022/09/13 12:43:52;;;;;;;4.25;2.20;;;640.60;1894.40;;;;;;5083299;28;20110;-83
2022/09/13 12:46:47;;;;;;;3.05;2.00;;;665.80;1920.00;;;;;;5060362;28;20044;-83
2022/09/13 12:49:35;;;;;;;3.67;2.20;;;691.20;1868.80;;;;;;5085006;28;20028;-83
2022/09/13 12:52:30;;;;;;;4.35;2.40;;;691.70;1843.20;;;;;;5057151;28;20123;-84
2022/09/13 12:55:35;;;;;;;3.50;2.25;;;691.80;1843.20;;;;;;5069300;28;20031;-84
2022/09/13 12:58:27;;;;;;;3.63;2.33;;;691.40;1868.80;;;;;;5025183;28;20462;-84
2022/09/13 13:01:11;;;;;;;6.38;2.50;;;666.50;1920.00;;;;;;5058892;28;20401;-84
2022/09/13 13:04:01;;;;;;;3.67;2.40;;;666.00;1945.60;;;;;;5067135;28;20081;-84